sensor_id;sensor_type;location;lat;lon;timestamp;P1;durP1;ratioP1;P2;durP2;ratioP2
36415;SDS011;22447;44.530;18.620;2022-07-17T00:00:40;7.90;;;6.10;;
36415;SDS011;22447;44.530;18.620;2022-07-17T00:03:10;10.05;;;6.18;;
36415;SDS011;22447;44.530;18.620;2022-07-17T00:05:40;11.40;;;5.85;;
36415;SDS011;22447;44.530;18.620;2022-07-17T00:08:07;9.13;;;6.30;;
36415;SDS011;22447;44.530;18.620;2022-07-17T00:10:35;8.15;;;6.50;;
36415;SDS011;22447;44.530;18.620;2022-07-17T00:13:03;11.95;;;6.40;;
36415;SDS011;22447;44.530;18.620;2022-07-17T00:15:29;9.10;;;6.55;;
36415;SDS011;22447;44.530;18.620;2022-07-17T00:17:55;8.88;;;6.05;;
36415;SDS011;22447;44.530;18.620;2022-07-17T00:20:21;9.25;;;6.25;;
36415;SDS011;22447;44.530;18.620;2022-07-17T00:22:53;8.75;;;6.13;;
36415;SDS011;22447;44.530;18.620;2022-07-17T00:25:20;9.05;;;6.28;;
36415;SDS011;22447;44.530;18.620;2022-07-17T00:27:47;13.23;;;6.70;;
36415;SDS011;22447;44.530;18.620;2022-07-17T00:30:13;8.88;;;6.18;;
36415;SDS011;22447;44.530;18.620;2022-07-17T00:32:40;12.32;;;6.72;;
36415;SDS011;22447;44.530;18.620;2022-07-17T00:35:06;11.95;;;6.47;;
36415;SDS011;22447;44.530;18.620;2022-07-17T00:37:40;9.80;;;6.07;;
36415;SDS011;22447;44.530;18.620;2022-07-17T00:40:08;7.70;;;5.72;;
36415;SDS011;22447;44.530;18.620;2022-07-17T00:42:38;12.27;;;6.65;;
36415;SDS011;22447;44.530;18.620;2022-07-17T00:45:05;10.40;;;6.78;;
36415;SDS011;22447;44.530;18.620;2022-07-17T00:47:32;13.63;;;6.65;;
36415;SDS011;22447;44.530;18.620;2022-07-17T00:49:58;9.90;;;7.13;;
36415;SDS011;22447;44.530;18.620;2022-07-17T00:52:24;8.90;;;6.80;;
36415;SDS011;22447;44.530;18.620;2022-07-17T00:54:50;9.02;;;6.22;;
36415;SDS011;22447;44.530;18.620;2022-07-17T00:57:17;9.48;;;5.95;;
36415;SDS011;22447;44.530;18.620;2022-07-17T00:59:45;8.93;;;7.15;;
36415;SDS011;22447;44.530;18.620;2022-07-17T01:02:12;10.02;;;7.03;;
36415;SDS011;22447;44.530;18.620;2022-07-17T01:04:41;12.35;;;6.82;;
36415;SDS011;22447;44.530;18.620;2022-07-17T01:07:07;13.13;;;6.72;;
36415;SDS011;22447;44.530;18.620;2022-07-17T01:09:33;9.98;;;6.63;;
36415;SDS011;22447;44.530;18.620;2022-07-17T01:12:00;10.57;;;6.68;;
36415;SDS011;22447;44.530;18.620;2022-07-17T01:14:26;10.82;;;6.88;;
36415;SDS011;22447;44.530;18.620;2022-07-17T01:16:53;8.57;;;6.75;;
36415;SDS011;22447;44.530;18.620;2022-07-17T01:19:20;11.60;;;7.10;;
36415;SDS011;22447;44.530;18.620;2022-07-17T01:21:49;12.60;;;7.45;;
36415;SDS011;22447;44.530;18.620;2022-07-17T01:24:16;14.55;;;6.70;;
36415;SDS011;22447;44.530;18.620;2022-07-17T01:26:43;10.45;;;7.25;;
36415;SDS011;22447;44.530;18.620;2022-07-17T01:29:10;16.27;;;7.47;;
36415;SDS011;22447;44.530;18.620;2022-07-17T01:31:38;9.43;;;7.00;;
36415;SDS011;22447;44.530;18.620;2022-07-17T01:34:05;14.18;;;6.97;;
36415;SDS011;22447;44.530;18.620;2022-07-17T01:36:33;12.82;;;7.32;;
36415;SDS011;22447;44.530;18.620;2022-07-17T01:38:59;10.57;;;6.97;;
36415;SDS011;22447;44.530;18.620;2022-07-17T01:41:26;11.25;;;7.07;;
36415;SDS011;22447;44.530;18.620;2022-07-17T01:43:52;11.13;;;7.05;;
36415;SDS011;22447;44.530;18.620;2022-07-17T01:46:18;13.75;;;7.70;;
36415;SDS011;22447;44.530;18.620;2022-07-17T01:48:44;12.50;;;7.57;;
36415;SDS011;22447;44.530;18.620;2022-07-17T01:51:10;9.80;;;6.78;;
36415;SDS011;22447;44.530;18.620;2022-07-17T01:53:36;12.80;;;7.95;;
36415;SDS011;22447;44.530;18.620;2022-07-17T01:56:02;11.30;;;7.88;;
36415;SDS011;22447;44.530;18.620;2022-07-17T01:58:28;10.05;;;6.35;;
36415;SDS011;22447;44.530;18.620;2022-07-17T02:00:54;11.75;;;6.90;;
36415;SDS011;22447;44.530;18.620;2022-07-17T02:03:20;9.82;;;7.15;;
36415;SDS011;22447;44.530;18.620;2022-07-17T02:05:47;10.85;;;7.10;;
36415;SDS011;22447;44.530;18.620;2022-07-17T02:08:13;9.73;;;6.70;;
36415;SDS011;22447;44.530;18.620;2022-07-17T02:10:39;12.40;;;7.15;;
36415;SDS011;22447;44.530;18.620;2022-07-17T02:13:05;13.15;;;7.43;;
36415;SDS011;22447;44.530;18.620;2022-07-17T02:15:31;9.55;;;6.53;;
36415;SDS011;22447;44.530;18.620;2022-07-17T02:17:57;11.80;;;6.90;;
36415;SDS011;22447;44.530;18.620;2022-07-17T02:20:23;13.45;;;8.15;;
36415;SDS011;22447;44.530;18.620;2022-07-17T02:22:49;14.25;;;8.18;;
36415;SDS011;22447;44.530;18.620;2022-07-17T02:25:15;10.57;;;7.32;;
36415;SDS011;22447;44.530;18.620;2022-07-17T02:27:42;11.30;;;7.20;;
36415;SDS011;22447;44.530;18.620;2022-07-17T02:30:10;10.38;;;6.95;;
36415;SDS011;22447;44.530;18.620;2022-07-17T02:32:38;14.70;;;8.30;;
36415;SDS011;22447;44.530;18.620;2022-07-17T02:35:05;12.10;;;7.72;;
36415;SDS011;22447;44.530;18.620;2022-07-17T02:37:32;10.68;;;7.78;;
36415;SDS011;22447;44.530;18.620;2022-07-17T02:39:58;13.50;;;7.25;;
36415;SDS011;22447;44.530;18.620;2022-07-17T02:42:25;14.02;;;8.32;;
36415;SDS011;22447;44.530;18.620;2022-07-17T02:44:53;13.40;;;7.95;;
36415;SDS011;22447;44.530;18.620;2022-07-17T02:47:20;10.90;;;7.72;;
36415;SDS011;22447;44.530;18.620;2022-07-17T02:49:50;12.30;;;7.20;;
36415;SDS011;22447;44.530;18.620;2022-07-17T02:52:17;10.63;;;7.20;;
36415;SDS011;22447;44.530;18.620;2022-07-17T02:54:43;11.90;;;7.57;;
36415;SDS011;22447;44.530;18.620;2022-07-17T02:57:10;11.18;;;6.90;;
36415;SDS011;22447;44.530;18.620;2022-07-17T02:59:36;9.55;;;6.80;;
36415;SDS011;22447;44.530;18.620;2022-07-17T03:02:02;9.35;;;6.78;;
36415;SDS011;22447;44.530;18.620;2022-07-17T03:04:29;12.43;;;7.72;;
36415;SDS011;22447;44.530;18.620;2022-07-17T03:06:54;13.48;;;7.18;;
36415;SDS011;22447;44.530;18.620;2022-07-17T03:09:20;8.45;;;5.68;;
36415;SDS011;22447;44.530;18.620;2022-07-17T03:11:46;9.70;;;6.47;;
36415;SDS011;22447;44.530;18.620;2022-07-17T03:14:12;9.82;;;6.45;;
36415;SDS011;22447;44.530;18.620;2022-07-17T03:16:38;11.05;;;6.53;;
36415;SDS011;22447;44.530;18.620;2022-07-17T03:19:04;9.40;;;6.03;;
36415;SDS011;22447;44.530;18.620;2022-07-17T03:21:30;8.32;;;6.50;;
36415;SDS011;22447;44.530;18.620;2022-07-17T03:23:56;12.80;;;6.93;;
36415;SDS011;22447;44.530;18.620;2022-07-17T03:26:22;15.10;;;7.00;;
36415;SDS011;22447;44.530;18.620;2022-07-17T03:28:48;9.52;;;6.90;;
36415;SDS011;22447;44.530;18.620;2022-07-17T03:31:14;13.13;;;7.82;;
36415;SDS011;22447;44.530;18.620;2022-07-17T03:33:40;12.38;;;7.40;;
36415;SDS011;22447;44.530;18.620;2022-07-17T03:36:06;14.07;;;7.85;;
36415;SDS011;22447;44.530;18.620;2022-07-17T03:38:33;16.08;;;7.82;;
36415;SDS011;22447;44.530;18.620;2022-07-17T03:40:59;20.83;;;7.57;;
36415;SDS011;22447;44.530;18.620;2022-07-17T03:43:25;19.38;;;7.50;;
36415;SDS011;22447;44.530;18.620;2022-07-17T03:45:51;21.15;;;7.88;;
36415;SDS011;22447;44.530;18.620;2022-07-17T03:48:17;21.42;;;7.95;;
36415;SDS011;22447;44.530;18.620;2022-07-17T03:50:43;21.60;;;7.80;;
36415;SDS011;22447;44.530;18.620;2022-07-17T03:53:09;20.85;;;8.43;;
36415;SDS011;22447;44.530;18.620;2022-07-17T03:55:35;25.80;;;9.25;;
36415;SDS011;22447;44.530;18.620;2022-07-17T03:58:01;20.25;;;9.30;;
36415;SDS011;22447;44.530;18.620;2022-07-17T04:00:27;24.73;;;9.20;;
36415;SDS011;22447;44.530;18.620;2022-07-17T04:02:53;31.15;;;10.32;;
36415;SDS011;22447;44.530;18.620;2022-07-17T04:05:19;30.67;;;11.30;;
36415;SDS011;22447;44.530;18.620;2022-07-17T04:07:45;28.00;;;11.23;;
36415;SDS011;22447;44.530;18.620;2022-07-17T04:10:14;26.63;;;11.85;;
36415;SDS011;22447;44.530;18.620;2022-07-17T04:12:40;21.65;;;10.80;;
36415;SDS011;22447;44.530;18.620;2022-07-17T04:15:07;27.48;;;12.85;;
36415;SDS011;22447;44.530;18.620;2022-07-17T04:17:34;27.75;;;12.43;;
36415;SDS011;22447;44.530;18.620;2022-07-17T04:20:00;27.02;;;14.43;;
36415;SDS011;22447;44.530;18.620;2022-07-17T04:22:26;27.45;;;14.48;;
36415;SDS011;22447;44.530;18.620;2022-07-17T04:24:52;25.85;;;14.15;;
36415;SDS011;22447;44.530;18.620;2022-07-17T04:27:18;24.92;;;13.68;;
36415;SDS011;22447;44.530;18.620;2022-07-17T04:29:44;21.58;;;13.90;;
36415;SDS011;22447;44.530;18.620;2022-07-17T04:32:10;25.77;;;13.52;;
36415;SDS011;22447;44.530;18.620;2022-07-17T04:34:36;25.55;;;13.63;;
36415;SDS011;22447;44.530;18.620;2022-07-17T04:37:03;32.55;;;15.63;;
36415;SDS011;22447;44.530;18.620;2022-07-17T04:39:29;31.17;;;15.52;;
36415;SDS011;22447;44.530;18.620;2022-07-17T04:41:55;30.52;;;16.65;;
36415;SDS011;22447;44.530;18.620;2022-07-17T04:44:22;31.38;;;16.40;;
36415;SDS011;22447;44.530;18.620;2022-07-17T04:46:48;33.70;;;16.83;;
36415;SDS011;22447;44.530;18.620;2022-07-17T04:49:13;32.63;;;17.23;;
36415;SDS011;22447;44.530;18.620;2022-07-17T04:51:39;31.75;;;18.00;;
36415;SDS011;22447;44.530;18.620;2022-07-17T04:54:05;32.40;;;17.27;;
36415;SDS011;22447;44.530;18.620;2022-07-17T04:56:31;33.85;;;17.90;;
36415;SDS011;22447;44.530;18.620;2022-07-17T04:58:57;44.85;;;19.15;;
36415;SDS011;22447;44.530;18.620;2022-07-17T05:01:23;50.50;;;19.30;;
36415;SDS011;22447;44.530;18.620;2022-07-17T05:03:49;41.15;;;17.02;;
36415;SDS011;22447;44.530;18.620;2022-07-17T05:06:15;38.47;;;17.50;;
36415;SDS011;22447;44.530;18.620;2022-07-17T05:08:41;35.40;;;16.58;;
36415;SDS011;22447;44.530;18.620;2022-07-17T05:11:07;31.40;;;14.18;;
36415;SDS011;22447;44.530;18.620;2022-07-17T05:13:33;24.85;;;14.45;;
36415;SDS011;22447;44.530;18.620;2022-07-17T05:15:59;27.15;;;13.18;;
36415;SDS011;22447;44.530;18.620;2022-07-17T05:18:25;23.55;;;13.10;;
36415;SDS011;22447;44.530;18.620;2022-07-17T05:20:51;23.58;;;13.05;;
36415;SDS011;22447;44.530;18.620;2022-07-17T05:23:17;19.13;;;12.35;;
36415;SDS011;22447;44.530;18.620;2022-07-17T05:25:43;20.77;;;11.10;;
36415;SDS011;22447;44.530;18.620;2022-07-17T05:28:09;21.17;;;10.40;;
36415;SDS011;22447;44.530;18.620;2022-07-17T05:30:35;26.58;;;12.15;;
36415;SDS011;22447;44.530;18.620;2022-07-17T05:33:01;27.13;;;11.07;;
36415;SDS011;22447;44.530;18.620;2022-07-17T05:35:27;27.75;;;10.65;;
36415;SDS011;22447;44.530;18.620;2022-07-17T05:37:53;35.67;;;11.57;;
36415;SDS011;22447;44.530;18.620;2022-07-17T05:40:18;25.73;;;10.27;;
36415;SDS011;22447;44.530;18.620;2022-07-17T05:42:44;25.63;;;11.43;;
36415;SDS011;22447;44.530;18.620;2022-07-17T05:45:10;31.95;;;11.48;;
36415;SDS011;22447;44.530;18.620;2022-07-17T05:47:36;28.25;;;11.50;;
36415;SDS011;22447;44.530;18.620;2022-07-17T05:50:02;24.00;;;10.60;;
36415;SDS011;22447;44.530;18.620;2022-07-17T05:52:29;20.05;;;10.68;;
36415;SDS011;22447;44.530;18.620;2022-07-17T05:54:54;24.75;;;10.23;;
36415;SDS011;22447;44.530;18.620;2022-07-17T05:57:20;21.70;;;9.30;;
36415;SDS011;22447;44.530;18.620;2022-07-17T05:59:46;20.23;;;10.40;;
36415;SDS011;22447;44.530;18.620;2022-07-17T06:02:12;32.35;;;12.30;;
36415;SDS011;22447;44.530;18.620;2022-07-17T06:04:38;25.52;;;10.27;;
36415;SDS011;22447;44.530;18.620;2022-07-17T06:07:04;25.05;;;10.57;;
36415;SDS011;22447;44.530;18.620;2022-07-17T06:09:30;16.70;;;9.60;;
36415;SDS011;22447;44.530;18.620;2022-07-17T06:11:57;19.25;;;9.63;;
36415;SDS011;22447;44.530;18.620;2022-07-17T06:14:23;23.02;;;9.20;;
36415;SDS011;22447;44.530;18.620;2022-07-17T06:16:50;19.02;;;9.60;;
36415;SDS011;22447;44.530;18.620;2022-07-17T06:19:16;17.75;;;9.00;;
36415;SDS011;22447;44.530;18.620;2022-07-17T06:21:42;18.00;;;8.13;;
36415;SDS011;22447;44.530;18.620;2022-07-17T06:24:08;18.38;;;9.05;;
36415;SDS011;22447;44.530;18.620;2022-07-17T06:26:34;17.52;;;8.27;;
36415;SDS011;22447;44.530;18.620;2022-07-17T06:29:00;18.23;;;7.20;;
36415;SDS011;22447;44.530;18.620;2022-07-17T06:31:26;15.23;;;6.72;;
36415;SDS011;22447;44.530;18.620;2022-07-17T06:33:52;15.10;;;6.82;;
36415;SDS011;22447;44.530;18.620;2022-07-17T06:36:18;8.68;;;5.07;;
36415;SDS011;22447;44.530;18.620;2022-07-17T06:38:44;13.25;;;6.10;;
36415;SDS011;22447;44.530;18.620;2022-07-17T06:41:10;9.27;;;4.53;;
36415;SDS011;22447;44.530;18.620;2022-07-17T06:43:36;11.57;;;4.60;;
36415;SDS011;22447;44.530;18.620;2022-07-17T06:46:02;8.65;;;4.00;;
36415;SDS011;22447;44.530;18.620;2022-07-17T06:48:28;9.82;;;4.15;;
36415;SDS011;22447;44.530;18.620;2022-07-17T06:50:54;10.40;;;4.60;;
36415;SDS011;22447;44.530;18.620;2022-07-17T06:53:21;10.38;;;4.80;;
36415;SDS011;22447;44.530;18.620;2022-07-17T06:55:47;10.18;;;5.35;;
36415;SDS011;22447;44.530;18.620;2022-07-17T06:58:13;12.95;;;4.53;;
36415;SDS011;22447;44.530;18.620;2022-07-17T07:00:39;7.68;;;4.13;;
36415;SDS011;22447;44.530;18.620;2022-07-17T07:03:05;11.27;;;4.82;;
36415;SDS011;22447;44.530;18.620;2022-07-17T07:05:31;13.23;;;5.20;;
36415;SDS011;22447;44.530;18.620;2022-07-17T07:07:57;14.32;;;6.50;;
36415;SDS011;22447;44.530;18.620;2022-07-17T07:10:23;15.95;;;6.25;;
36415;SDS011;22447;44.530;18.620;2022-07-17T07:12:49;15.95;;;5.45;;
36415;SDS011;22447;44.530;18.620;2022-07-17T07:15:15;7.97;;;4.68;;
36415;SDS011;22447;44.530;18.620;2022-07-17T07:17:41;13.68;;;4.60;;
36415;SDS011;22447;44.530;18.620;2022-07-17T07:20:07;10.52;;;4.50;;
36415;SDS011;22447;44.530;18.620;2022-07-17T07:22:34;10.75;;;3.63;;
36415;SDS011;22447;44.530;18.620;2022-07-17T07:25:02;7.88;;;3.20;;
36415;SDS011;22447;44.530;18.620;2022-07-17T07:27:28;6.97;;;2.70;;
36415;SDS011;22447;44.530;18.620;2022-07-17T07:29:54;6.63;;;2.60;;
36415;SDS011;22447;44.530;18.620;2022-07-17T07:32:20;6.75;;;3.08;;
36415;SDS011;22447;44.530;18.620;2022-07-17T07:34:46;5.90;;;2.72;;
36415;SDS011;22447;44.530;18.620;2022-07-17T07:37:12;5.03;;;2.55;;
36415;SDS011;22447;44.530;18.620;2022-07-17T07:39:38;6.55;;;2.20;;
36415;SDS011;22447;44.530;18.620;2022-07-17T07:42:04;9.45;;;2.70;;
36415;SDS011;22447;44.530;18.620;2022-07-17T07:44:30;9.25;;;2.42;;
36415;SDS011;22447;44.530;18.620;2022-07-17T07:46:56;6.03;;;2.55;;
36415;SDS011;22447;44.530;18.620;2022-07-17T07:49:22;6.68;;;2.25;;
36415;SDS011;22447;44.530;18.620;2022-07-17T07:51:48;10.68;;;3.35;;
36415;SDS011;22447;44.530;18.620;2022-07-17T07:54:14;4.65;;;1.95;;
36415;SDS011;22447;44.530;18.620;2022-07-17T07:56:40;5.50;;;2.35;;
36415;SDS011;22447;44.530;18.620;2022-07-17T07:59:06;6.65;;;2.28;;
36415;SDS011;22447;44.530;18.620;2022-07-17T08:01:32;8.15;;;2.38;;
36415;SDS011;22447;44.530;18.620;2022-07-17T08:03:57;4.93;;;2.25;;
36415;SDS011;22447;44.530;18.620;2022-07-17T08:06:23;6.88;;;2.53;;
36415;SDS011;22447;44.530;18.620;2022-07-17T08:08:49;6.63;;;2.97;;
36415;SDS011;22447;44.530;18.620;2022-07-17T08:11:15;9.88;;;3.42;;
36415;SDS011;22447;44.530;18.620;2022-07-17T08:13:41;7.75;;;2.45;;
36415;SDS011;22447;44.530;18.620;2022-07-17T08:16:07;3.95;;;1.73;;
36415;SDS011;22447;44.530;18.620;2022-07-17T08:18:33;4.85;;;2.42;;
36415;SDS011;22447;44.530;18.620;2022-07-17T08:20:59;5.65;;;2.10;;
36415;SDS011;22447;44.530;18.620;2022-07-17T08:23:25;5.43;;;2.63;;
36415;SDS011;22447;44.530;18.620;2022-07-17T08:25:52;6.88;;;2.78;;
36415;SDS011;22447;44.530;18.620;2022-07-17T08:28:18;4.18;;;2.28;;
36415;SDS011;22447;44.530;18.620;2022-07-17T08:30:44;8.98;;;2.42;;
36415;SDS011;22447;44.530;18.620;2022-07-17T08:33:10;7.90;;;2.13;;
36415;SDS011;22447;44.530;18.620;2022-07-17T08:35:36;3.53;;;1.90;;
36415;SDS011;22447;44.530;18.620;2022-07-17T08:38:02;8.18;;;2.50;;
36415;SDS011;22447;44.530;18.620;2022-07-17T08:40:30;5.60;;;1.77;;
36415;SDS011;22447;44.530;18.620;2022-07-17T08:43:01;5.82;;;1.58;;
36415;SDS011;22447;44.530;18.620;2022-07-17T08:45:28;5.32;;;2.15;;
36415;SDS011;22447;44.530;18.620;2022-07-17T08:47:55;8.85;;;1.70;;
36415;SDS011;22447;44.530;18.620;2022-07-17T08:50:23;7.00;;;2.30;;
36415;SDS011;22447;44.530;18.620;2022-07-17T08:52:54;4.03;;;2.35;;
36415;SDS011;22447;44.530;18.620;2022-07-17T08:55:20;3.15;;;1.33;;
36415;SDS011;22447;44.530;18.620;2022-07-17T08:57:47;2.50;;;1.63;;
36415;SDS011;22447;44.530;18.620;2022-07-17T09:00:13;4.60;;;1.55;;
36415;SDS011;22447;44.530;18.620;2022-07-17T09:02:51;5.68;;;2.20;;
36415;SDS011;22447;44.530;18.620;2022-07-17T09:05:27;3.83;;;1.75;;
36415;SDS011;22447;44.530;18.620;2022-07-17T09:12:56;3.55;;;1.80;;
36415;SDS011;22447;44.530;18.620;2022-07-17T09:15:23;13.50;;;3.00;;
36415;SDS011;22447;44.530;18.620;2022-07-17T09:17:50;11.25;;;2.90;;
36415;SDS011;22447;44.530;18.620;2022-07-17T09:20:18;3.55;;;1.85;;
36415;SDS011;22447;44.530;18.620;2022-07-17T09:22:55;7.97;;;2.22;;
36415;SDS011;22447;44.530;18.620;2022-07-17T09:28:19;4.88;;;1.95;;
36415;SDS011;22447;44.530;18.620;2022-07-17T09:30:46;4.30;;;1.88;;
36415;SDS011;22447;44.530;18.620;2022-07-17T09:33:15;6.13;;;1.80;;
36415;SDS011;22447;44.530;18.620;2022-07-17T09:35:53;3.85;;;1.80;;
36415;SDS011;22447;44.530;18.620;2022-07-17T09:38:31;3.25;;;1.60;;
36415;SDS011;22447;44.530;18.620;2022-07-17T09:41:03;4.82;;;1.90;;
36415;SDS011;22447;44.530;18.620;2022-07-17T09:43:58;5.45;;;1.55;;
36415;SDS011;22447;44.530;18.620;2022-07-17T09:46:27;3.70;;;1.98;;
36415;SDS011;22447;44.530;18.620;2022-07-17T09:48:56;8.60;;;2.40;;
36415;SDS011;22447;44.530;18.620;2022-07-17T09:53:53;4.47;;;1.80;;
36415;SDS011;22447;44.530;18.620;2022-07-17T09:56:25;4.60;;;1.65;;
36415;SDS011;22447;44.530;18.620;2022-07-17T09:58:53;5.47;;;2.10;;
36415;SDS011;22447;44.530;18.620;2022-07-17T10:01:20;4.85;;;1.77;;
36415;SDS011;22447;44.530;18.620;2022-07-17T10:03:46;10.45;;;3.58;;
36415;SDS011;22447;44.530;18.620;2022-07-17T10:06:18;3.45;;;1.80;;
36415;SDS011;22447;44.530;18.620;2022-07-17T10:08:48;2.85;;;1.73;;
36415;SDS011;22447;44.530;18.620;2022-07-17T10:11:15;6.05;;;1.70;;
36415;SDS011;22447;44.530;18.620;2022-07-17T10:16:12;4.03;;;1.65;;
36415;SDS011;22447;44.530;18.620;2022-07-17T10:18:42;4.60;;;1.60;;
36415;SDS011;22447;44.530;18.620;2022-07-17T10:23:37;12.10;;;2.10;;
36415;SDS011;22447;44.530;18.620;2022-07-17T10:26:03;5.25;;;1.90;;
36415;SDS011;22447;44.530;18.620;2022-07-17T10:28:42;4.82;;;1.55;;
36415;SDS011;22447;44.530;18.620;2022-07-17T10:33:54;5.75;;;1.80;;
36415;SDS011;22447;44.530;18.620;2022-07-17T10:36:39;6.72;;;1.67;;
36415;SDS011;22447;44.530;18.620;2022-07-17T10:39:21;5.05;;;1.90;;
36415;SDS011;22447;44.530;18.620;2022-07-17T10:42:00;3.22;;;1.75;;
36415;SDS011;22447;44.530;18.620;2022-07-17T10:44:31;6.30;;;2.63;;
36415;SDS011;22447;44.530;18.620;2022-07-17T10:46:57;3.95;;;1.45;;
36415;SDS011;22447;44.530;18.620;2022-07-17T10:49:23;4.22;;;1.60;;
36415;SDS011;22447;44.530;18.620;2022-07-17T10:51:51;3.97;;;1.50;;
36415;SDS011;22447;44.530;18.620;2022-07-17T10:54:17;2.33;;;1.50;;
36415;SDS011;22447;44.530;18.620;2022-07-17T10:56:44;3.50;;;1.48;;
36415;SDS011;22447;44.530;18.620;2022-07-17T10:59:10;3.72;;;2.20;;
36415;SDS011;22447;44.530;18.620;2022-07-17T11:01:37;7.07;;;2.00;;
36415;SDS011;22447;44.530;18.620;2022-07-17T11:04:04;7.70;;;2.85;;
36415;SDS011;22447;44.530;18.620;2022-07-17T11:06:34;3.42;;;1.95;;
36415;SDS011;22447;44.530;18.620;2022-07-17T11:16:46;4.18;;;2.13;;
36415;SDS011;22447;44.530;18.620;2022-07-17T11:19:19;6.78;;;2.50;;
36415;SDS011;22447;44.530;18.620;2022-07-17T11:21:46;4.90;;;2.10;;
36415;SDS011;22447;44.530;18.620;2022-07-17T11:24:13;37.42;;;16.33;;
36415;SDS011;22447;44.530;18.620;2022-07-17T11:26:39;43.80;;;18.75;;
36415;SDS011;22447;44.530;18.620;2022-07-17T11:29:05;129.10;;;58.80;;
36415;SDS011;22447;44.530;18.620;2022-07-17T11:31:30;25.55;;;11.55;;
36415;SDS011;22447;44.530;18.620;2022-07-17T11:34:00;17.27;;;7.15;;
36415;SDS011;22447;44.530;18.620;2022-07-17T11:36:35;8.38;;;3.28;;
36415;SDS011;22447;44.530;18.620;2022-07-17T11:39:04;3.35;;;1.60;;
36415;SDS011;22447;44.530;18.620;2022-07-17T11:41:36;3.28;;;1.42;;
36415;SDS011;22447;44.530;18.620;2022-07-17T11:44:13;7.53;;;2.10;;
36415;SDS011;22447;44.530;18.620;2022-07-17T11:46:41;5.28;;;1.30;;
36415;SDS011;22447;44.530;18.620;2022-07-17T11:49:10;1.77;;;1.23;;
36415;SDS011;22447;44.530;18.620;2022-07-17T11:56:33;3.78;;;1.30;;
36415;SDS011;22447;44.530;18.620;2022-07-17T11:59:00;2.63;;;1.55;;
36415;SDS011;22447;44.530;18.620;2022-07-17T12:01:37;2.58;;;1.63;;
36415;SDS011;22447;44.530;18.620;2022-07-17T12:04:12;2.20;;;1.33;;
36415;SDS011;22447;44.530;18.620;2022-07-17T12:06:40;9.52;;;1.92;;
36415;SDS011;22447;44.530;18.620;2022-07-17T12:09:06;2.10;;;1.20;;
36415;SDS011;22447;44.530;18.620;2022-07-17T12:11:33;3.90;;;1.35;;
36415;SDS011;22447;44.530;18.620;2022-07-17T12:14:14;2.00;;;1.20;;
36415;SDS011;22447;44.530;18.620;2022-07-17T12:16:40;2.40;;;1.33;;
36415;SDS011;22447;44.530;18.620;2022-07-17T12:21:55;5.40;;;1.38;;
36415;SDS011;22447;44.530;18.620;2022-07-17T12:24:37;2.28;;;1.05;;
36415;SDS011;22447;44.530;18.620;2022-07-17T12:27:06;5.55;;;1.50;;
36415;SDS011;22447;44.530;18.620;2022-07-17T12:29:34;3.88;;;1.75;;
36415;SDS011;22447;44.530;18.620;2022-07-17T12:32:07;2.35;;;1.30;;
36415;SDS011;22447;44.530;18.620;2022-07-17T12:34:36;8.13;;;2.05;;
36415;SDS011;22447;44.530;18.620;2022-07-17T12:37:16;7.47;;;1.52;;
36415;SDS011;22447;44.530;18.620;2022-07-17T12:39:44;2.92;;;1.30;;
36415;SDS011;22447;44.530;18.620;2022-07-17T12:42:12;3.83;;;1.42;;
36415;SDS011;22447;44.530;18.620;2022-07-17T12:44:41;3.37;;;1.17;;
36415;SDS011;22447;44.530;18.620;2022-07-17T12:47:08;5.10;;;1.40;;
36415;SDS011;22447;44.530;18.620;2022-07-17T12:49:34;5.28;;;1.60;;
36415;SDS011;22447;44.530;18.620;2022-07-17T12:52:00;1.95;;;1.02;;
36415;SDS011;22447;44.530;18.620;2022-07-17T12:54:26;5.75;;;1.58;;
36415;SDS011;22447;44.530;18.620;2022-07-17T12:56:52;4.78;;;1.83;;
36415;SDS011;22447;44.530;18.620;2022-07-17T12:59:18;3.10;;;1.88;;
36415;SDS011;22447;44.530;18.620;2022-07-17T13:01:45;2.60;;;1.67;;
36415;SDS011;22447;44.530;18.620;2022-07-17T13:04:11;7.60;;;2.13;;
36415;SDS011;22447;44.530;18.620;2022-07-17T13:06:37;2.55;;;1.13;;
36415;SDS011;22447;44.530;18.620;2022-07-17T13:09:03;4.32;;;1.30;;
36415;SDS011;22447;44.530;18.620;2022-07-17T13:11:29;3.60;;;1.42;;
36415;SDS011;22447;44.530;18.620;2022-07-17T13:13:55;3.08;;;1.77;;
36415;SDS011;22447;44.530;18.620;2022-07-17T13:16:21;4.25;;;1.48;;
36415;SDS011;22447;44.530;18.620;2022-07-17T13:18:47;2.08;;;1.38;;
36415;SDS011;22447;44.530;18.620;2022-07-17T13:21:13;1.95;;;1.45;;
36415;SDS011;22447;44.530;18.620;2022-07-17T13:23:40;5.53;;;2.60;;
36415;SDS011;22447;44.530;18.620;2022-07-17T13:26:06;3.85;;;1.80;;
36415;SDS011;22447;44.530;18.620;2022-07-17T13:28:32;5.82;;;1.80;;
36415;SDS011;22447;44.530;18.620;2022-07-17T13:30:58;2.92;;;1.52;;
36415;SDS011;22447;44.530;18.620;2022-07-17T13:33:24;2.88;;;1.40;;
36415;SDS011;22447;44.530;18.620;2022-07-17T13:35:50;2.42;;;1.38;;
36415;SDS011;22447;44.530;18.620;2022-07-17T13:38:17;4.32;;;1.52;;
36415;SDS011;22447;44.530;18.620;2022-07-17T13:40:42;3.08;;;1.50;;
36415;SDS011;22447;44.530;18.620;2022-07-17T13:43:08;3.58;;;1.35;;
36415;SDS011;22447;44.530;18.620;2022-07-17T13:45:34;2.95;;;1.30;;
36415;SDS011;22447;44.530;18.620;2022-07-17T13:48:00;3.80;;;2.20;;
36415;SDS011;22447;44.530;18.620;2022-07-17T13:50:26;1.83;;;1.20;;
36415;SDS011;22447;44.530;18.620;2022-07-17T13:52:53;3.33;;;1.48;;
36415;SDS011;22447;44.530;18.620;2022-07-17T13:55:19;1.90;;;1.15;;
36415;SDS011;22447;44.530;18.620;2022-07-17T13:57:45;2.38;;;1.40;;
36415;SDS011;22447;44.530;18.620;2022-07-17T14:00:11;1.40;;;1.13;;
36415;SDS011;22447;44.530;18.620;2022-07-17T14:02:38;2.70;;;1.10;;
36415;SDS011;22447;44.530;18.620;2022-07-17T14:05:04;2.47;;;1.33;;
36415;SDS011;22447;44.530;18.620;2022-07-17T14:07:32;5.03;;;1.40;;
36415;SDS011;22447;44.530;18.620;2022-07-17T14:09:58;4.88;;;1.83;;
36415;SDS011;22447;44.530;18.620;2022-07-17T14:12:24;3.95;;;1.67;;
36415;SDS011;22447;44.530;18.620;2022-07-17T14:14:50;5.72;;;1.30;;
36415;SDS011;22447;44.530;18.620;2022-07-17T14:17:16;5.30;;;1.67;;
36415;SDS011;22447;44.530;18.620;2022-07-17T14:19:43;2.13;;;1.50;;
36415;SDS011;22447;44.530;18.620;2022-07-17T14:22:10;3.95;;;1.60;;
36415;SDS011;22447;44.530;18.620;2022-07-17T14:24:36;3.53;;;1.73;;
36415;SDS011;22447;44.530;18.620;2022-07-17T14:27:02;3.90;;;1.30;;
36415;SDS011;22447;44.530;18.620;2022-07-17T14:29:28;9.15;;;2.10;;
36415;SDS011;22447;44.530;18.620;2022-07-17T14:31:54;4.38;;;1.60;;
36415;SDS011;22447;44.530;18.620;2022-07-17T14:34:20;5.30;;;1.85;;
36415;SDS011;22447;44.530;18.620;2022-07-17T14:36:46;2.97;;;1.80;;
36415;SDS011;22447;44.530;18.620;2022-07-17T14:39:12;4.00;;;1.60;;
36415;SDS011;22447;44.530;18.620;2022-07-17T14:41:39;2.92;;;1.70;;
36415;SDS011;22447;44.530;18.620;2022-07-17T14:44:05;5.28;;;2.15;;
36415;SDS011;22447;44.530;18.620;2022-07-17T14:46:31;5.45;;;1.67;;
36415;SDS011;22447;44.530;18.620;2022-07-17T14:48:57;3.22;;;1.80;;
36415;SDS011;22447;44.530;18.620;2022-07-17T14:51:23;3.15;;;1.42;;
36415;SDS011;22447;44.530;18.620;2022-07-17T14:53:49;4.00;;;1.73;;
36415;SDS011;22447;44.530;18.620;2022-07-17T14:56:15;2.55;;;1.73;;
36415;SDS011;22447;44.530;18.620;2022-07-17T14:58:40;4.80;;;1.60;;